sensor_id;sensor_type;location;lat;lon;timestamp;temperature;humidity
76613;DHT22;65507;48.454;-2.058;2023-01-08T00:00:56;9.30;83.60
76613;DHT22;65507;48.454;-2.058;2023-01-08T00:03:22;9.20;83.70
76613;DHT22;65507;48.454;-2.058;2023-01-08T00:05:48;9.20;83.90
76613;DHT22;65507;48.454;-2.058;2023-01-08T00:08:14;9.10;83.90
76613;DHT22;65507;48.454;-2.058;2023-01-08T00:10:40;9.10;84.00
76613;DHT22;65507;48.454;-2.058;2023-01-08T00:13:06;9.00;84.10
76613;DHT22;65507;48.454;-2.058;2023-01-08T00:15:32;9.00;84.10
76613;DHT22;65507;48.454;-2.058;2023-01-08T00:17:58;9.00;84.20
76613;DHT22;65507;48.454;-2.058;2023-01-08T00:20:25;9.00;84.10
76613;DHT22;65507;48.454;-2.058;2023-01-08T00:22:51;8.90;84.10
76613;DHT22;65507;48.454;-2.058;2023-01-08T00:25:18;9.00;84.20
76613;DHT22;65507;48.454;-2.058;2023-01-08T00:27:45;9.00;84.20
76613;DHT22;65507;48.454;-2.058;2023-01-08T00:30:11;9.00;84.20
76613;DHT22;65507;48.454;-2.058;2023-01-08T00:32:37;9.00;84.10
76613;DHT22;65507;48.454;-2.058;2023-01-08T00:35:03;9.00;84.10
76613;DHT22;65507;48.454;-2.058;2023-01-08T00:37:29;9.10;84.10
76613;DHT22;65507;48.454;-2.058;2023-01-08T00:39:55;9.00;84.00
76613;DHT22;65507;48.454;-2.058;2023-01-08T00:42:21;9.10;84.00
76613;DHT22;65507;48.454;-2.058;2023-01-08T00:44:47;9.10;84.00
76613;DHT22;65507;48.454;-2.058;2023-01-08T00:47:12;9.10;84.80
76613;DHT22;65507;48.454;-2.058;2023-01-08T00:49:39;9.10;83.90
76613;DHT22;65507;48.454;-2.058;2023-01-08T00:52:05;9.10;84.00
76613;DHT22;65507;48.454;-2.058;2023-01-08T00:54:30;9.10;84.00
76613;DHT22;65507;48.454;-2.058;2023-01-08T00:56:56;9.10;84.00
76613;DHT22;65507;48.454;-2.058;2023-01-08T00:59:22;9.20;83.90
76613;DHT22;65507;48.454;-2.058;2023-01-08T01:01:48;9.20;83.80
76613;DHT22;65507;48.454;-2.058;2023-01-08T01:04:14;9.30;83.80
76613;DHT22;65507;48.454;-2.058;2023-01-08T01:06:42;9.30;83.70
76613;DHT22;65507;48.454;-2.058;2023-01-08T01:09:08;9.30;83.70
76613;DHT22;65507;48.454;-2.058;2023-01-08T01:11:34;9.30;83.70
76613;DHT22;65507;48.454;-2.058;2023-01-08T01:14:00;9.40;83.70
76613;DHT22;65507;48.454;-2.058;2023-01-08T01:16:26;9.40;83.60
76613;DHT22;65507;48.454;-2.058;2023-01-08T01:18:53;9.40;83.70
76613;DHT22;65507;48.454;-2.058;2023-01-08T01:21:29;9.40;83.60
76613;DHT22;65507;48.454;-2.058;2023-01-08T01:24:00;9.40;83.70
76613;DHT22;65507;48.454;-2.058;2023-01-08T01:26:27;9.40;83.70
76613;DHT22;65507;48.454;-2.058;2023-01-08T01:28:55;9.30;83.80
76613;DHT22;65507;48.454;-2.058;2023-01-08T01:31:22;9.30;83.90
76613;DHT22;65507;48.454;-2.058;2023-01-08T01:33:48;9.30;83.90
76613;DHT22;65507;48.454;-2.058;2023-01-08T01:36:16;9.20;84.00
76613;DHT22;65507;48.454;-2.058;2023-01-08T01:38:45;9.20;84.10
76613;DHT22;65507;48.454;-2.058;2023-01-08T01:41:28;9.20;84.10
76613;DHT22;65507;48.454;-2.058;2023-01-08T01:43:57;9.10;84.10
76613;DHT22;65507;48.454;-2.058;2023-01-08T01:46:37;9.10;84.10
76613;DHT22;65507;48.454;-2.058;2023-01-08T01:49:24;9.10;84.20
76613;DHT22;65507;48.454;-2.058;2023-01-08T01:51:53;9.00;84.20
76613;DHT22;65507;48.454;-2.058;2023-01-08T01:54:20;9.00;84.20
76613;DHT22;65507;48.454;-2.058;2023-01-08T01:56:47;9.00;84.20
76613;DHT22;65507;48.454;-2.058;2023-01-08T01:59:13;9.00;84.30
76613;DHT22;65507;48.454;-2.058;2023-01-08T02:01:40;8.90;84.40
76613;DHT22;65507;48.454;-2.058;2023-01-08T02:04:10;9.00;84.30
76613;DHT22;65507;48.454;-2.058;2023-01-08T02:09:47;8.90;85.20
76613;DHT22;65507;48.454;-2.058;2023-01-08T02:12:35;8.90;84.20
76613;DHT22;65507;48.454;-2.058;2023-01-08T02:20:37;8.90;84.20
76613;DHT22;65507;48.454;-2.058;2023-01-08T02:28:21;8.90;84.30
76613;DHT22;65507;48.454;-2.058;2023-01-08T02:30:47;8.90;84.30
76613;DHT22;65507;48.454;-2.058;2023-01-08T02:33:14;8.90;84.30
76613;DHT22;65507;48.454;-2.058;2023-01-08T02:38:56;8.90;84.30
76613;DHT22;65507;48.454;-2.058;2023-01-08T02:41:31;8.80;84.30
76613;DHT22;65507;48.454;-2.058;2023-01-08T02:43:59;8.80;84.40
76613;DHT22;65507;48.454;-2.058;2023-01-08T02:46:29;8.80;84.40
76613;DHT22;65507;48.454;-2.058;2023-01-08T02:49:09;8.80;84.40
76613;DHT22;65507;48.454;-2.058;2023-01-08T02:51:50;8.70;84.50
76613;DHT22;65507;48.454;-2.058;2023-01-08T02:54:24;8.70;84.50
76613;DHT22;65507;48.454;-2.058;2023-01-08T02:56:58;8.70;84.60
76613;DHT22;65507;48.454;-2.058;2023-01-08T02:59:26;8.60;84.50
76613;DHT22;65507;48.454;-2.058;2023-01-08T03:01:54;8.60;84.70
76613;DHT22;65507;48.454;-2.058;2023-01-08T03:04:21;8.50;84.70
76613;DHT22;65507;48.454;-2.058;2023-01-08T03:06:47;8.50;84.80
76613;DHT22;65507;48.454;-2.058;2023-01-08T03:09:14;8.50;85.00
76613;DHT22;65507;48.454;-2.058;2023-01-08T03:12:03;8.40;85.00
76613;DHT22;65507;48.454;-2.058;2023-01-08T03:17:27;8.30;85.10
76613;DHT22;65507;48.454;-2.058;2023-01-08T03:19:59;8.30;85.10
76613;DHT22;65507;48.454;-2.058;2023-01-08T03:22:26;8.30;85.10
76613;DHT22;65507;48.454;-2.058;2023-01-08T03:24:52;8.20;85.20
76613;DHT22;65507;48.454;-2.058;2023-01-08T03:27:26;8.20;85.20
76613;DHT22;65507;48.454;-2.058;2023-01-08T03:29:54;8.20;85.20
76613;DHT22;65507;48.454;-2.058;2023-01-08T03:32:23;8.20;85.20
76613;DHT22;65507;48.454;-2.058;2023-01-08T03:34:53;8.10;85.20
76613;DHT22;65507;48.454;-2.058;2023-01-08T03:37:25;8.10;85.20
76613;DHT22;65507;48.454;-2.058;2023-01-08T03:40:06;8.10;85.20
76613;DHT22;65507;48.454;-2.058;2023-01-08T03:42:33;8.10;85.30
76613;DHT22;65507;48.454;-2.058;2023-01-08T03:44:59;8.10;85.40
76613;DHT22;65507;48.454;-2.058;2023-01-08T03:47:27;8.00;85.30
76613;DHT22;65507;48.454;-2.058;2023-01-08T03:49:58;8.00;85.40
76613;DHT22;65507;48.454;-2.058;2023-01-08T03:52:28;8.00;85.40
76613;DHT22;65507;48.454;-2.058;2023-01-08T03:54:55;8.00;85.40
76613;DHT22;65507;48.454;-2.058;2023-01-08T03:57:21;8.00;85.50
76613;DHT22;65507;48.454;-2.058;2023-01-08T03:59:47;7.90;85.50
76613;DHT22;65507;48.454;-2.058;2023-01-08T04:02:13;7.90;85.60
76613;DHT22;65507;48.454;-2.058;2023-01-08T04:04:39;7.90;85.50
76613;DHT22;65507;48.454;-2.058;2023-01-08T04:07:05;7.90;85.50
76613;DHT22;65507;48.454;-2.058;2023-01-08T04:09:31;7.90;85.50
76613;DHT22;65507;48.454;-2.058;2023-01-08T04:11:56;7.90;85.40
76613;DHT22;65507;48.454;-2.058;2023-01-08T04:14:22;7.90;85.40
76613;DHT22;65507;48.454;-2.058;2023-01-08T04:16:48;7.90;85.50
76613;DHT22;65507;48.454;-2.058;2023-01-08T04:19:14;7.90;85.40
76613;DHT22;65507;48.454;-2.058;2023-01-08T04:21:40;7.90;85.40
76613;DHT22;65507;48.454;-2.058;2023-01-08T04:24:06;7.90;85.40
76613;DHT22;65507;48.454;-2.058;2023-01-08T04:26:32;7.90;85.40
76613;DHT22;65507;48.454;-2.058;2023-01-08T04:28:58;7.90;85.40
76613;DHT22;65507;48.454;-2.058;2023-01-08T04:31:23;7.90;85.40
76613;DHT22;65507;48.454;-2.058;2023-01-08T04:33:49;7.90;85.40
76613;DHT22;65507;48.454;-2.058;2023-01-08T04:36:15;7.90;85.40
76613;DHT22;65507;48.454;-2.058;2023-01-08T04:38:41;7.90;85.40
76613;DHT22;65507;48.454;-2.058;2023-01-08T04:41:07;7.90;85.40
76613;DHT22;65507;48.454;-2.058;2023-01-08T04:43:33;7.90;85.30
76613;DHT22;65507;48.454;-2.058;2023-01-08T04:46:00;8.00;85.40
76613;DHT22;65507;48.454;-2.058;2023-01-08T04:48:26;8.00;85.30
76613;DHT22;65507;48.454;-2.058;2023-01-08T04:50:52;8.00;85.30
76613;DHT22;65507;48.454;-2.058;2023-01-08T04:53:18;8.00;85.20
76613;DHT22;65507;48.454;-2.058;2023-01-08T04:55:44;8.00;85.20
76613;DHT22;65507;48.454;-2.058;2023-01-08T04:58:09;8.00;85.20
76613;DHT22;65507;48.454;-2.058;2023-01-08T05:00:37;8.00;85.20
76613;DHT22;65507;48.454;-2.058;2023-01-08T05:03:03;8.00;85.30
76613;DHT22;65507;48.454;-2.058;2023-01-08T05:05:29;8.00;85.20
76613;DHT22;65507;48.454;-2.058;2023-01-08T05:07:54;8.00;85.30
76613;DHT22;65507;48.454;-2.058;2023-01-08T05:10:20;8.00;85.20
76613;DHT22;65507;48.454;-2.058;2023-01-08T05:12:46;8.00;85.30
76613;DHT22;65507;48.454;-2.058;2023-01-08T05:15:11;8.00;85.30
76613;DHT22;65507;48.454;-2.058;2023-01-08T05:17:37;8.00;85.40
76613;DHT22;65507;48.454;-2.058;2023-01-08T05:20:03;8.00;85.40
76613;DHT22;65507;48.454;-2.058;2023-01-08T05:22:29;8.00;85.40
76613;DHT22;65507;48.454;-2.058;2023-01-08T05:24:54;8.00;85.40
76613;DHT22;65507;48.454;-2.058;2023-01-08T05:27:20;7.90;85.40
76613;DHT22;65507;48.454;-2.058;2023-01-08T05:29:46;7.90;85.50
76613;DHT22;65507;48.454;-2.058;2023-01-08T05:32:16;7.90;85.60
76613;DHT22;65507;48.454;-2.058;2023-01-08T05:34:42;7.90;85.60
76613;DHT22;65507;48.454;-2.058;2023-01-08T05:37:08;7.90;85.60
76613;DHT22;65507;48.454;-2.058;2023-01-08T05:39:34;7.90;85.60
76613;DHT22;65507;48.454;-2.058;2023-01-08T05:42:00;7.90;85.70
76613;DHT22;65507;48.454;-2.058;2023-01-08T05:44:26;7.90;85.70
76613;DHT22;65507;48.454;-2.058;2023-01-08T05:46:52;7.90;85.70
76613;DHT22;65507;48.454;-2.058;2023-01-08T05:49:18;7.90;85.70
76613;DHT22;65507;48.454;-2.058;2023-01-08T05:51:46;7.90;85.60
76613;DHT22;65507;48.454;-2.058;2023-01-08T05:54:12;8.00;85.70
76613;DHT22;65507;48.454;-2.058;2023-01-08T05:56:38;8.00;85.60
76613;DHT22;65507;48.454;-2.058;2023-01-08T05:59:05;8.00;85.50
76613;DHT22;65507;48.454;-2.058;2023-01-08T06:01:31;8.00;85.50
76613;DHT22;65507;48.454;-2.058;2023-01-08T06:03:57;8.00;85.50
76613;DHT22;65507;48.454;-2.058;2023-01-08T06:06:23;8.00;85.40
76613;DHT22;65507;48.454;-2.058;2023-01-08T06:08:49;8.00;85.40
76613;DHT22;65507;48.454;-2.058;2023-01-08T06:11:15;8.10;85.40
76613;DHT22;65507;48.454;-2.058;2023-01-08T06:13:42;8.10;85.40
76613;DHT22;65507;48.454;-2.058;2023-01-08T06:16:08;8.00;85.40
76613;DHT22;65507;48.454;-2.058;2023-01-08T06:18:35;8.10;85.50
76613;DHT22;65507;48.454;-2.058;2023-01-08T06:21:01;8.10;85.40
76613;DHT22;65507;48.454;-2.058;2023-01-08T06:23:27;8.10;85.40
76613;DHT22;65507;48.454;-2.058;2023-01-08T06:25:54;8.10;85.40
76613;DHT22;65507;48.454;-2.058;2023-01-08T06:28:21;8.10;85.30
76613;DHT22;65507;48.454;-2.058;2023-01-08T06:30:47;8.10;85.30
76613;DHT22;65507;48.454;-2.058;2023-01-08T06:33:12;8.10;85.20
76613;DHT22;65507;48.454;-2.058;2023-01-08T06:35:38;8.10;85.20
76613;DHT22;65507;48.454;-2.058;2023-01-08T06:38:04;8.20;85.30
76613;DHT22;65507;48.454;-2.058;2023-01-08T06:40:29;8.20;85.30
76613;DHT22;65507;48.454;-2.058;2023-01-08T06:42:55;8.20;85.30
76613;DHT22;65507;48.454;-2.058;2023-01-08T06:45:25;8.20;85.20
76613;DHT22;65507;48.454;-2.058;2023-01-08T06:47:50;8.20;85.20
76613;DHT22;65507;48.454;-2.058;2023-01-08T06:50:16;8.20;85.20
76613;DHT22;65507;48.454;-2.058;2023-01-08T06:52:42;8.20;85.20
76613;DHT22;65507;48.454;-2.058;2023-01-08T06:55:08;8.20;85.20
76613;DHT22;65507;48.454;-2.058;2023-01-08T06:57:34;8.20;85.20
76613;DHT22;65507;48.454;-2.058;2023-01-08T06:59:59;8.20;85.20
76613;DHT22;65507;48.454;-2.058;2023-01-08T07:02:25;8.20;85.30
76613;DHT22;65507;48.454;-2.058;2023-01-08T07:04:51;8.20;85.20
76613;DHT22;65507;48.454;-2.058;2023-01-08T07:07:16;8.20;85.20
76613;DHT22;65507;48.454;-2.058;2023-01-08T07:09:42;8.20;85.30
76613;DHT22;65507;48.454;-2.058;2023-01-08T07:12:12;8.20;85.30
76613;DHT22;65507;48.454;-2.058;2023-01-08T07:14:38;8.10;85.20
76613;DHT22;65507;48.454;-2.058;2023-01-08T07:17:04;8.10;85.30
76613;DHT22;65507;48.454;-2.058;2023-01-08T07:19:30;8.20;85.30
76613;DHT22;65507;48.454;-2.058;2023-01-08T07:21:56;8.20;85.30
76613;DHT22;65507;48.454;-2.058;2023-01-08T07:24:21;8.20;85.30
76613;DHT22;65507;48.454;-2.058;2023-01-08T07:26:47;8.20;85.30
76613;DHT22;65507;48.454;-2.058;2023-01-08T07:29:13;8.20;85.30
76613;DHT22;65507;48.454;-2.058;2023-01-08T07:31:39;8.20;85.30
76613;DHT22;65507;48.454;-2.058;2023-01-08T07:34:04;8.20;85.30
76613;DHT22;65507;48.454;-2.058;2023-01-08T07:36:30;8.20;85.30
76613;DHT22;65507;48.454;-2.058;2023-01-08T07:38:56;8.20;85.30
76613;DHT22;65507;48.454;-2.058;2023-01-08T07:41:22;8.20;85.30
76613;DHT22;65507;48.454;-2.058;2023-01-08T07:43:47;8.20;85.30
76613;DHT22;65507;48.454;-2.058;2023-01-08T07:46:14;8.20;85.30
76613;DHT22;65507;48.454;-2.058;2023-01-08T07:48:40;8.20;85.30
76613;DHT22;65507;48.454;-2.058;2023-01-08T07:51:07;8.20;85.50
76613;DHT22;65507;48.454;-2.058;2023-01-08T07:53:34;8.10;85.40
76613;DHT22;65507;48.454;-2.058;2023-01-08T07:56:01;8.20;85.40
76613;DHT22;65507;48.454;-2.058;2023-01-08T07:58:27;8.10;85.50
76613;DHT22;65507;48.454;-2.058;2023-01-08T08:00:54;8.10;85.40
76613;DHT22;65507;48.454;-2.058;2023-01-08T08:03:19;8.10;85.40
76613;DHT22;65507;48.454;-2.058;2023-01-08T08:05:45;8.10;85.40
76613;DHT22;65507;48.454;-2.058;2023-01-08T08:08:12;8.10;85.40
76613;DHT22;65507;48.454;-2.058;2023-01-08T08:10:39;8.10;85.40
76613;DHT22;65507;48.454;-2.058;2023-01-08T08:13:06;8.10;85.40
76613;DHT22;65507;48.454;-2.058;2023-01-08T08:15:33;8.10;85.40
76613;DHT22;65507;48.454;-2.058;2023-01-08T08:17:59;8.10;85.40
76613;DHT22;65507;48.454;-2.058;2023-01-08T08:20:25;8.10;85.40
76613;DHT22;65507;48.454;-2.058;2023-01-08T08:22:51;8.20;85.40
76613;DHT22;65507;48.454;-2.058;2023-01-08T08:25:17;8.10;85.30
76613;DHT22;65507;48.454;-2.058;2023-01-08T08:27:44;8.20;85.30
76613;DHT22;65507;48.454;-2.058;2023-01-08T08:30:10;8.20;85.30
76613;DHT22;65507;48.454;-2.058;2023-01-08T08:32:37;8.20;85.30
76613;DHT22;65507;48.454;-2.058;2023-01-08T08:35:04;8.20;85.40
76613;DHT22;65507;48.454;-2.058;2023-01-08T08:37:30;8.30;85.40
76613;DHT22;65507;48.454;-2.058;2023-01-08T08:39:55;8.30;85.20
76613;DHT22;65507;48.454;-2.058;2023-01-08T08:42:21;8.30;85.10
76613;DHT22;65507;48.454;-2.058;2023-01-08T08:44:47;8.40;85.10
76613;DHT22;65507;48.454;-2.058;2023-01-08T08:47:13;8.40;85.10
76613;DHT22;65507;48.454;-2.058;2023-01-08T08:49:39;8.40;85.10
76613;DHT22;65507;48.454;-2.058;2023-01-08T08:52:05;8.40;85.00
76613;DHT22;65507;48.454;-2.058;2023-01-08T08:54:31;8.50;85.00
76613;DHT22;65507;48.454;-2.058;2023-01-08T08:56:57;8.50;85.00
76613;DHT22;65507;48.454;-2.058;2023-01-08T08:59:22;8.50;85.00
76613;DHT22;65507;48.454;-2.058;2023-01-08T09:01:48;8.60;84.90
76613;DHT22;65507;48.454;-2.058;2023-01-08T09:04:14;8.60;84.90
76613;DHT22;65507;48.454;-2.058;2023-01-08T09:06:39;8.70;85.00
76613;DHT22;65507;48.454;-2.058;2023-01-08T09:09:05;8.70;84.80
76613;DHT22;65507;48.454;-2.058;2023-01-08T09:11:31;8.80;84.80
76613;DHT22;65507;48.454;-2.058;2023-01-08T09:13:57;8.80;84.70
76613;DHT22;65507;48.454;-2.058;2023-01-08T09:16:23;8.90;84.70
76613;DHT22;65507;48.454;-2.058;2023-01-08T09:18:48;8.90;84.70
76613;DHT22;65507;48.454;-2.058;2023-01-08T09:21:14;8.90;85.60
76613;DHT22;65507;48.454;-2.058;2023-01-08T09:23:40;8.90;84.70
76613;DHT22;65507;48.454;-2.058;2023-01-08T09:26:06;9.00;84.60
76613;DHT22;65507;48.454;-2.058;2023-01-08T09:28:33;9.10;84.60
76613;DHT22;65507;48.454;-2.058;2023-01-08T09:31:02;9.10;84.50
76613;DHT22;65507;48.454;-2.058;2023-01-08T09:33:29;9.20;84.50
76613;DHT22;65507;48.454;-2.058;2023-01-08T09:35:54;9.30;84.40
76613;DHT22;65507;48.454;-2.058;2023-01-08T09:38:21;9.40;84.30
76613;DHT22;65507;48.454;-2.058;2023-01-08T09:43:22;9.50;84.10
76613;DHT22;65507;48.454;-2.058;2023-01-08T09:45:54;9.60;84.00
76613;DHT22;65507;48.454;-2.058;2023-01-08T09:48:24;9.70;83.90
76613;DHT22;65507;48.454;-2.058;2023-01-08T09:50:51;9.80;83.80
76613;DHT22;65507;48.454;-2.058;2023-01-08T09:53:17;9.90;83.80
76613;DHT22;65507;48.454;-2.058;2023-01-08T09:55:48;9.90;83.70
76613;DHT22;65507;48.454;-2.058;2023-01-08T10:01:00;10.00;83.60
76613;DHT22;65507;48.454;-2.058;2023-01-08T10:03:31;10.10;83.70
76613;DHT22;65507;48.454;-2.058;2023-01-08T10:06:10;10.10;83.70
76613;DHT22;65507;48.454;-2.058;2023-01-08T10:08:37;10.10;83.60
76613;DHT22;65507;48.454;-2.058;2023-01-08T10:11:04;10.20;83.60
76613;DHT22;65507;48.454;-2.058;2023-01-08T10:13:31;10.30;83.70
76613;DHT22;65507;48.454;-2.058;2023-01-08T10:15:58;10.30;83.50
76613;DHT22;65507;48.454;-2.058;2023-01-08T10:18:25;10.40;83.50
76613;DHT22;65507;48.454;-2.058;2023-01-08T10:20:51;10.50;83.40
76613;DHT22;65507;48.454;-2.058;2023-01-08T10:23:19;10.60;83.40
76613;DHT22;65507;48.454;-2.058;2023-01-08T10:25:58;10.60;83.20
76613;DHT22;65507;48.454;-2.058;2023-01-08T10:28:29;10.70;83.10
76613;DHT22;65507;48.454;-2.058;2023-01-08T10:33:39;10.90;82.90
76613;DHT22;65507;48.454;-2.058;2023-01-08T10:36:09;11.00;82.80
76613;DHT22;65507;48.454;-2.058;2023-01-08T10:38:42;11.00;82.70
76613;DHT22;65507;48.454;-2.058;2023-01-08T10:41:13;11.10;82.70
76613;DHT22;65507;48.454;-2.058;2023-01-08T10:44:01;11.10;82.50
76613;DHT22;65507;48.454;-2.058;2023-01-08T10:46:47;11.20;82.50
76613;DHT22;65507;48.454;-2.058;2023-01-08T10:49:33;11.20;82.40
76613;DHT22;65507;48.454;-2.058;2023-01-08T10:52:01;11.30;82.30
76613;DHT22;65507;48.454;-2.058;2023-01-08T10:54:39;11.40;83.20
76613;DHT22;65507;48.454;-2.058;2023-01-08T10:57:27;11.50;82.10
76613;DHT22;65507;48.454;-2.058;2023-01-08T10:59:54;11.60;81.90
76613;DHT22;65507;48.454;-2.058;2023-01-08T11:02:40;11.70;81.70
76613;DHT22;65507;48.454;-2.058;2023-01-08T11:05:07;11.70;81.40
76613;DHT22;65507;48.454;-2.058;2023-01-08T11:07:36;11.80;81.40
76613;DHT22;65507;48.454;-2.058;2023-01-08T11:10:04;11.80;81.20
76613;DHT22;65507;48.454;-2.058;2023-01-08T11:12:34;11.80;81.20
76613;DHT22;65507;48.454;-2.058;2023-01-08T11:15:02;11.90;81.10
76613;DHT22;65507;48.454;-2.058;2023-01-08T11:17:29;11.90;81.00
76613;DHT22;65507;48.454;-2.058;2023-01-08T11:20:06;11.90;80.90
76613;DHT22;65507;48.454;-2.058;2023-01-08T11:22:31;11.90;80.90
76613;DHT22;65507;48.454;-2.058;2023-01-08T11:24:57;12.00;80.90
76613;DHT22;65507;48.454;-2.058;2023-01-08T11:27:38;12.00;81.00
76613;DHT22;65507;48.454;-2.058;2023-01-08T11:30:13;12.00;80.80
76613;DHT22;65507;48.454;-2.058;2023-01-08T11:33:03;12.00;80.90
76613;DHT22;65507;48.454;-2.058;2023-01-08T11:35:49;11.90;80.90
76613;DHT22;65507;48.454;-2.058;2023-01-08T11:38:15;11.90;81.10
76613;DHT22;65507;48.454;-2.058;2023-01-08T11:40:58;11.80;81.00
76613;DHT22;65507;48.454;-2.058;2023-01-08T11:43:45;11.80;81.00
76613;DHT22;65507;48.454;-2.058;2023-01-08T11:49:25;11.90;80.90
76613;DHT22;65507;48.454;-2.058;2023-01-08T12:00:23;12.20;80.10
76613;DHT22;65507;48.454;-2.058;2023-01-08T12:02:54;12.20;80.10
76613;DHT22;65507;48.454;-2.058;2023-01-08T12:05:22;12.20;80.00
76613;DHT22;65507;48.454;-2.058;2023-01-08T12:10:44;12.30;80.10
76613;DHT22;65507;48.454;-2.058;2023-01-08T12:16:16;12.30;80.00
76613;DHT22;65507;48.454;-2.058;2023-01-08T12:21:55;12.40;79.70
76613;DHT22;65507;48.454;-2.058;2023-01-08T12:27:23;12.50;79.70
76613;DHT22;65507;48.454;-2.058;2023-01-08T12:32:49;12.60;79.50
76613;DHT22;65507;48.454;-2.058;2023-01-08T12:35:44;12.50;79.50
76613;DHT22;65507;48.454;-2.058;2023-01-08T12:38:14;12.60;79.50
76613;DHT22;65507;48.454;-2.058;2023-01-08T12:43:42;12.70;79.30
76613;DHT22;65507;48.454;-2.058;2023-01-08T12:46:11;12.80;79.30
76613;DHT22;65507;48.454;-2.058;2023-01-08T12:48:40;12.80;79.50
76613;DHT22;65507;48.454;-2.058;2023-01-08T12:57:25;12.60;79.80
76613;DHT22;65507;48.454;-2.058;2023-01-08T12:59:59;12.40;80.10
76613;DHT22;65507;48.454;-2.058;2023-01-08T13:02:37;12.20;81.40
76613;DHT22;65507;48.454;-2.058;2023-01-08T13:08:04;11.90;81.10
76613;DHT22;65507;48.454;-2.058;2023-01-08T13:12:57;11.80;81.40
76613;DHT22;65507;48.454;-2.058;2023-01-08T13:15:28;11.80;81.30
76613;DHT22;65507;48.454;-2.058;2023-01-08T13:18:02;11.90;81.20
76613;DHT22;65507;48.454;-2.058;2023-01-08T13:20:31;11.90;81.10
76613;DHT22;65507;48.454;-2.058;2023-01-08T13:23:00;11.90;81.00
76613;DHT22;65507;48.454;-2.058;2023-01-08T13:25:29;12.00;80.90
76613;DHT22;65507;48.454;-2.058;2023-01-08T13:27:56;12.10;80.80
76613;DHT22;65507;48.454;-2.058;2023-01-08T13:30:41;12.20;80.70
76613;DHT22;65507;48.454;-2.058;2023-01-08T13:36:14;12.20;80.30
76613;DHT22;65507;48.454;-2.058;2023-01-08T13:38:41;12.20;80.40
76613;DHT22;65507;48.454;-2.058;2023-01-08T13:41:54;12.20;80.40
76613;DHT22;65507;48.454;-2.058;2023-01-08T13:44:26;12.40;80.40
76613;DHT22;65507;48.454;-2.058;2023-01-08T13:47:00;12.20;80.30
76613;DHT22;65507;48.454;-2.058;2023-01-08T13:49:44;12.20;80.20
76613;DHT22;65507;48.454;-2.058;2023-01-08T13:54:54;12.20;80.20
76613;DHT22;65507;48.454;-2.058;2023-01-08T13:57:21;12.10;80.40
76613;DHT22;65507;48.454;-2.058;2023-01-08T13:59:55;12.10;80.40
76613;DHT22;65507;48.454;-2.058;2023-01-08T14:02:26;12.10;80.40
76613;DHT22;65507;48.454;-2.058;2023-01-08T14:04:53;12.10;80.40
76613;DHT22;65507;48.454;-2.058;2023-01-08T14:07:19;12.10;80.50
76613;DHT22;65507;48.454;-2.058;2023-01-08T14:09:45;12.10;80.40
76613;DHT22;65507;48.454;-2.058;2023-01-08T14:12:21;12.10;80.40
76613;DHT22;65507;48.454;-2.058;2023-01-08T14:14:53;12.10;80.40
76613;DHT22;65507;48.454;-2.058;2023-01-08T14:17:24;12.00;80.40
76613;DHT22;65507;48.454;-2.058;2023-01-08T14:19:52;12.00;80.50
76613;DHT22;65507;48.454;-2.058;2023-01-08T14:22:22;12.00;80.50
76613;DHT22;65507;48.454;-2.058;2023-01-08T14:24:54;11.90;80.40
76613;DHT22;65507;48.454;-2.058;2023-01-08T14:27:26;11.90;80.30
76613;DHT22;65507;48.454;-2.058;2023-01-08T14:29:52;11.90;80.20
76613;DHT22;65507;48.454;-2.058;2023-01-08T14:32:21;11.90;80.10
76613;DHT22;65507;48.454;-2.058;2023-01-08T14:34:49;12.00;80.00
76613;DHT22;65507;48.454;-2.058;2023-01-08T14:37:16;12.00;79.90
76613;DHT22;65507;48.454;-2.058;2023-01-08T14:39:43;12.00;79.60
76613;DHT22;65507;48.454;-2.058;2023-01-08T14:42:15;12.00;79.50
76613;DHT22;65507;48.454;-2.058;2023-01-08T14:45:26;12.00;79.50
76613;DHT22;65507;48.454;-2.058;2023-01-08T14:47:58;11.90;79.50
76613;DHT22;65507;48.454;-2.058;2023-01-08T14:50:27;11.90;79.40
76613;DHT22;65507;48.454;-2.058;2023-01-08T14:52:57;11.90;79.40
76613;DHT22;65507;48.454;-2.058;2023-01-08T14:55:24;11.90;79.30
76613;DHT22;65507;48.454;-2.058;2023-01-08T14:57:52;11.90;80.20
76613;DHT22;65507;48.454;-2.058;2023-01-08T15:00:26;11.90;79.40
76613;DHT22;65507;48.454;-2.058;2023-01-08T15:02:52;11.80;79.50
76613;DHT22;65507;48.454;-2.058;2023-01-08T15:08:02;11.70;79.70
76613;DHT22;65507;48.454;-2.058;2023-01-08T15:10:41;11.70;79.80
76613;DHT22;65507;48.454;-2.058;2023-01-08T15:13:23;11.60;79.70
76613;DHT22;65507;48.454;-2.058;2023-01-08T15:16:37;11.60;79.80
76613;DHT22;65507;48.454;-2.058;2023-01-08T15:19:06;11.50;79.90
76613;DHT22;65507;48.454;-2.058;2023-01-08T15:21:34;11.50;79.90
76613;DHT22;65507;48.454;-2.058;2023-01-08T15:24:02;11.40;80.00
76613;DHT22;65507;48.454;-2.058;2023-01-08T15:26:28;11.40;80.00
76613;DHT22;65507;48.454;-2.058;2023-01-08T15:28:58;11.40;80.00
76613;DHT22;65507;48.454;-2.058;2023-01-08T15:31:31;11.40;79.90
76613;DHT22;65507;48.454;-2.058;2023-01-08T15:33:58;11.40;79.90
76613;DHT22;65507;48.454;-2.058;2023-01-08T15:36:24;11.30;79.80
76613;DHT22;65507;48.454;-2.058;2023-01-08T15:38:50;11.30;79.90
76613;DHT22;65507;48.454;-2.058;2023-01-08T15:41:21;11.20;79.90
76613;DHT22;65507;48.454;-2.058;2023-01-08T15:44:07;11.20;79.80
76613;DHT22;65507;48.454;-2.058;2023-01-08T15:46:33;11.20;79.90
76613;DHT22;65507;48.454;-2.058;2023-01-08T15:48:59;11.10;80.00
76613;DHT22;65507;48.454;-2.058;2023-01-08T15:51:25;11.10;80.00
76613;DHT22;65507;48.454;-2.058;2023-01-08T15:53:52;11.10;80.00
76613;DHT22;65507;48.454;-2.058;2023-01-08T15:56:18;11.00;80.00
76613;DHT22;65507;48.454;-2.058;2023-01-08T15:58:44;11.00;80.00
76613;DHT22;65507;48.454;-2.058;2023-01-08T16:01:10;10.90;80.10
76613;DHT22;65507;48.454;-2.058;2023-01-08T16:03:36;10.80;80.10
76613;DHT22;65507;48.454;-2.058;2023-01-08T16:06:05;10.80;80.20
76613;DHT22;65507;48.454;-2.058;2023-01-08T16:08:31;10.70;80.20
76613;DHT22;65507;48.454;-2.058;2023-01-08T16:10:57;10.60;80.40
76613;DHT22;65507;48.454;-2.058;2023-01-08T16:13:22;10.60;80.40
76613;DHT22;65507;48.454;-2.058;2023-01-08T16:15:48;10.50;80.40
76613;DHT22;65507;48.454;-2.058;2023-01-08T16:18:14;10.50;80.40
76613;DHT22;65507;48.454;-2.058;2023-01-08T16:20:40;10.50;80.40
76613;DHT22;65507;48.454;-2.058;2023-01-08T16:23:05;10.40;80.40
76613;DHT22;65507;48.454;-2.058;2023-01-08T16:25:31;10.40;80.40
76613;DHT22;65507;48.454;-2.058;2023-01-08T16:27:57;10.40;80.50
76613;DHT22;65507;48.454;-2.058;2023-01-08T16:30:23;10.30;80.40
76613;DHT22;65507;48.454;-2.058;2023-01-08T16:32:51;10.20;80.40
76613;DHT22;65507;48.454;-2.058;2023-01-08T16:35:17;10.20;80.50
76613;DHT22;65507;48.454;-2.058;2023-01-08T16:37:43;10.20;80.60
76613;DHT22;65507;48.454;-2.058;2023-01-08T16:40:09;10.10;80.60
76613;DHT22;65507;48.454;-2.058;2023-01-08T16:42:36;10.00;80.60
76613;DHT22;65507;48.454;-2.058;2023-01-08T16:45:02;10.00;80.80
76613;DHT22;65507;48.454;-2.058;2023-01-08T16:47:28;10.00;80.80
76613;DHT22;65507;48.454;-2.058;2023-01-08T16:49:54;9.90;80.80
76613;DHT22;65507;48.454;-2.058;2023-01-08T16:52:19;9.90;80.80